sensor_id;sensor_type;location;lat;lon;timestamp;temperature;humidity
25951;DHT22;13748;52.240;6.002;2022-10-16T00:01:35;14.10;99.90
25951;DHT22;13748;52.240;6.002;2022-10-16T00:04:02;13.70;99.90
25951;DHT22;13748;52.240;6.002;2022-10-16T00:06:30;13.40;99.90
25951;DHT22;13748;52.240;6.002;2022-10-16T00:08:58;13.30;99.90
25951;DHT22;13748;52.240;6.002;2022-10-16T00:11:31;13.60;99.90
25951;DHT22;13748;52.240;6.002;2022-10-16T00:14:02;13.50;99.90
25951;DHT22;13748;52.240;6.002;2022-10-16T00:16:31;13.50;99.90
25951;DHT22;13748;52.240;6.002;2022-10-16T00:18:58;13.40;99.90
25951;DHT22;13748;52.240;6.002;2022-10-16T00:21:27;13.40;99.90
25951;DHT22;13748;52.240;6.002;2022-10-16T00:23:59;13.30;99.90
25951;DHT22;13748;52.240;6.002;2022-10-16T00:26:28;13.30;99.90
25951;DHT22;13748;52.240;6.002;2022-10-16T00:28:58;13.20;99.90
25951;DHT22;13748;52.240;6.002;2022-10-16T00:31:26;13.20;99.90
25951;DHT22;13748;52.240;6.002;2022-10-16T00:34:01;13.10;99.90
25951;DHT22;13748;52.240;6.002;2022-10-16T00:36:30;13.20;99.90
25951;DHT22;13748;52.240;6.002;2022-10-16T00:38:59;13.20;99.90
25951;DHT22;13748;52.240;6.002;2022-10-16T00:41:28;13.20;99.90
25951;DHT22;13748;52.240;6.002;2022-10-16T00:44:03;13.20;99.90
25951;DHT22;13748;52.240;6.002;2022-10-16T00:46:40;13.20;99.90
25951;DHT22;13748;52.240;6.002;2022-10-16T00:49:14;13.20;99.90
25951;DHT22;13748;52.240;6.002;2022-10-16T00:51:43;13.30;99.90
25951;DHT22;13748;52.240;6.002;2022-10-16T00:54:15;13.30;99.90
25951;DHT22;13748;52.240;6.002;2022-10-16T00:56:44;13.60;99.90
25951;DHT22;13748;52.240;6.002;2022-10-16T00:59:24;13.20;99.90
25951;DHT22;13748;52.240;6.002;2022-10-16T01:01:52;13.20;99.90
25951;DHT22;13748;52.240;6.002;2022-10-16T01:04:20;13.10;99.90
25951;DHT22;13748;52.240;6.002;2022-10-16T01:07:12;13.10;99.90
25951;DHT22;13748;52.240;6.002;2022-10-16T01:09:47;13.10;99.90
25951;DHT22;13748;52.240;6.002;2022-10-16T01:12:38;13.00;99.90
25951;DHT22;13748;52.240;6.002;2022-10-16T01:28:42;13.10;99.90
25951;DHT22;13748;52.240;6.002;2022-10-16T01:31:15;13.10;99.90
25951;DHT22;13748;52.240;6.002;2022-10-16T01:33:47;13.10;99.90
25951;DHT22;13748;52.240;6.002;2022-10-16T01:36:22;13.40;99.90
25951;DHT22;13748;52.240;6.002;2022-10-16T01:38:53;13.10;99.90
25951;DHT22;13748;52.240;6.002;2022-10-16T01:41:30;13.10;99.90
25951;DHT22;13748;52.240;6.002;2022-10-16T01:44:02;13.10;99.90
25951;DHT22;13748;52.240;6.002;2022-10-16T01:46:31;13.10;99.90
25951;DHT22;13748;52.240;6.002;2022-10-16T01:49:00;13.10;99.90
25951;DHT22;13748;52.240;6.002;2022-10-16T01:51:29;13.20;99.90
25951;DHT22;13748;52.240;6.002;2022-10-16T01:53:58;13.20;99.90
25951;DHT22;13748;52.240;6.002;2022-10-16T01:56:27;13.20;99.90
25951;DHT22;13748;52.240;6.002;2022-10-16T01:59:05;13.20;99.90
25951;DHT22;13748;52.240;6.002;2022-10-16T02:01:35;13.30;99.90
25951;DHT22;13748;52.240;6.002;2022-10-16T02:04:11;13.30;99.90
25951;DHT22;13748;52.240;6.002;2022-10-16T02:06:44;13.40;99.90
25951;DHT22;13748;52.240;6.002;2022-10-16T02:09:11;13.30;99.90
25951;DHT22;13748;52.240;6.002;2022-10-16T02:11:38;13.40;99.90
25951;DHT22;13748;52.240;6.002;2022-10-16T02:14:06;13.40;99.90
25951;DHT22;13748;52.240;6.002;2022-10-16T02:16:41;13.50;99.90
25951;DHT22;13748;52.240;6.002;2022-10-16T02:19:09;13.50;99.90
25951;DHT22;13748;52.240;6.002;2022-10-16T02:21:54;13.80;99.90
25951;DHT22;13748;52.240;6.002;2022-10-16T02:24:33;13.60;99.90
25951;DHT22;13748;52.240;6.002;2022-10-16T02:29:53;13.70;99.90
25951;DHT22;13748;52.240;6.002;2022-10-16T02:32:30;13.70;99.90
25951;DHT22;13748;52.240;6.002;2022-10-16T02:34:58;13.70;99.90
25951;DHT22;13748;52.240;6.002;2022-10-16T02:37:26;13.70;99.90
25951;DHT22;13748;52.240;6.002;2022-10-16T02:39:55;13.70;99.90
25951;DHT22;13748;52.240;6.002;2022-10-16T02:42:35;13.70;99.90
25951;DHT22;13748;52.240;6.002;2022-10-16T02:45:04;13.70;99.90
25951;DHT22;13748;52.240;6.002;2022-10-16T02:47:34;13.70;99.90
25951;DHT22;13748;52.240;6.002;2022-10-16T02:50:01;13.70;99.90
25951;DHT22;13748;52.240;6.002;2022-10-16T02:52:28;13.70;99.90
25951;DHT22;13748;52.240;6.002;2022-10-16T02:54:55;13.80;99.90
25951;DHT22;13748;52.240;6.002;2022-10-16T02:57:22;13.80;99.90
25951;DHT22;13748;52.240;6.002;2022-10-16T02:59:49;13.70;99.90
25951;DHT22;13748;52.240;6.002;2022-10-16T03:02:16;13.80;99.90
25951;DHT22;13748;52.240;6.002;2022-10-16T03:04:46;13.70;99.90
25951;DHT22;13748;52.240;6.002;2022-10-16T03:07:12;13.80;99.90
25951;DHT22;13748;52.240;6.002;2022-10-16T03:09:39;13.70;99.90
25951;DHT22;13748;52.240;6.002;2022-10-16T03:12:06;13.90;99.90
25951;DHT22;13748;52.240;6.002;2022-10-16T03:14:33;13.80;99.90
25951;DHT22;13748;52.240;6.002;2022-10-16T03:17:00;13.80;99.90
25951;DHT22;13748;52.240;6.002;2022-10-16T03:19:27;13.70;99.90
25951;DHT22;13748;52.240;6.002;2022-10-16T03:21:54;13.80;99.90
25951;DHT22;13748;52.240;6.002;2022-10-16T03:24:21;13.80;99.90
25951;DHT22;13748;52.240;6.002;2022-10-16T03:26:49;13.80;99.90
25951;DHT22;13748;52.240;6.002;2022-10-16T03:29:16;13.80;99.90
25951;DHT22;13748;52.240;6.002;2022-10-16T03:31:43;13.80;99.90
25951;DHT22;13748;52.240;6.002;2022-10-16T03:34:09;13.80;99.90
25951;DHT22;13748;52.240;6.002;2022-10-16T03:36:36;13.80;99.90
25951;DHT22;13748;52.240;6.002;2022-10-16T03:39:03;13.70;99.90
25951;DHT22;13748;52.240;6.002;2022-10-16T03:41:30;13.70;99.90
25951;DHT22;13748;52.240;6.002;2022-10-16T03:43:57;13.70;99.90
25951;DHT22;13748;52.240;6.002;2022-10-16T03:46:24;13.80;99.90
25951;DHT22;13748;52.240;6.002;2022-10-16T03:48:51;13.60;99.90
25951;DHT22;13748;52.240;6.002;2022-10-16T03:51:17;13.50;99.90
25951;DHT22;13748;52.240;6.002;2022-10-16T03:53:44;13.50;99.90
25951;DHT22;13748;52.240;6.002;2022-10-16T03:56:11;13.50;99.90
25951;DHT22;13748;52.240;6.002;2022-10-16T03:58:38;13.50;99.90
25951;DHT22;13748;52.240;6.002;2022-10-16T04:01:05;13.50;99.90
25951;DHT22;13748;52.240;6.002;2022-10-16T04:03:32;13.50;99.90
25951;DHT22;13748;52.240;6.002;2022-10-16T04:05:58;13.50;99.90
25951;DHT22;13748;52.240;6.002;2022-10-16T04:08:25;13.70;99.90
25951;DHT22;13748;52.240;6.002;2022-10-16T04:10:53;13.50;99.90
25951;DHT22;13748;52.240;6.002;2022-10-16T04:13:20;13.40;99.90
25951;DHT22;13748;52.240;6.002;2022-10-16T04:15:47;13.40;99.90
25951;DHT22;13748;52.240;6.002;2022-10-16T04:18:13;13.40;99.90
25951;DHT22;13748;52.240;6.002;2022-10-16T04:20:40;13.40;99.90
25951;DHT22;13748;52.240;6.002;2022-10-16T04:23:07;13.40;99.90
25951;DHT22;13748;52.240;6.002;2022-10-16T04:25:34;13.30;99.90
25951;DHT22;13748;52.240;6.002;2022-10-16T04:28:02;13.30;99.90
25951;DHT22;13748;52.240;6.002;2022-10-16T04:30:29;13.40;99.90
25951;DHT22;13748;52.240;6.002;2022-10-16T04:32:56;13.40;99.90
25951;DHT22;13748;52.240;6.002;2022-10-16T04:35:23;13.20;99.90
25951;DHT22;13748;52.240;6.002;2022-10-16T04:37:50;13.30;99.90
25951;DHT22;13748;52.240;6.002;2022-10-16T04:40:17;13.30;99.90
25951;DHT22;13748;52.240;6.002;2022-10-16T04:42:44;13.30;99.90
25951;DHT22;13748;52.240;6.002;2022-10-16T04:45:11;13.30;99.90
25951;DHT22;13748;52.240;6.002;2022-10-16T04:47:42;13.30;99.90
25951;DHT22;13748;52.240;6.002;2022-10-16T04:50:09;13.30;99.90
25951;DHT22;13748;52.240;6.002;2022-10-16T04:52:39;13.30;99.90
25951;DHT22;13748;52.240;6.002;2022-10-16T04:55:07;13.20;99.90
25951;DHT22;13748;52.240;6.002;2022-10-16T04:57:33;13.30;99.90
25951;DHT22;13748;52.240;6.002;2022-10-16T05:00:00;13.20;99.90
25951;DHT22;13748;52.240;6.002;2022-10-16T05:02:27;13.20;99.90
25951;DHT22;13748;52.240;6.002;2022-10-16T05:04:55;13.20;99.90
25951;DHT22;13748;52.240;6.002;2022-10-16T05:07:21;13.20;99.90
25951;DHT22;13748;52.240;6.002;2022-10-16T05:09:49;13.20;99.90
25951;DHT22;13748;52.240;6.002;2022-10-16T05:12:16;13.20;99.90
25951;DHT22;13748;52.240;6.002;2022-10-16T05:14:43;13.20;99.90
25951;DHT22;13748;52.240;6.002;2022-10-16T05:17:09;13.10;99.90
25951;DHT22;13748;52.240;6.002;2022-10-16T05:19:36;13.10;99.90
25951;DHT22;13748;52.240;6.002;2022-10-16T05:22:03;13.10;99.90
25951;DHT22;13748;52.240;6.002;2022-10-16T05:24:30;13.10;99.90
25951;DHT22;13748;52.240;6.002;2022-10-16T05:26:57;13.20;99.90
25951;DHT22;13748;52.240;6.002;2022-10-16T05:29:24;13.10;99.90
25951;DHT22;13748;52.240;6.002;2022-10-16T05:31:52;13.10;99.90
25951;DHT22;13748;52.240;6.002;2022-10-16T05:34:20;13.10;99.90
25951;DHT22;13748;52.240;6.002;2022-10-16T05:36:47;13.10;99.90
25951;DHT22;13748;52.240;6.002;2022-10-16T05:39:14;13.10;99.90
25951;DHT22;13748;52.240;6.002;2022-10-16T05:41:42;13.10;99.90
25951;DHT22;13748;52.240;6.002;2022-10-16T05:44:09;13.10;99.90
25951;DHT22;13748;52.240;6.002;2022-10-16T05:46:36;13.10;99.90
25951;DHT22;13748;52.240;6.002;2022-10-16T05:49:03;13.10;99.90
25951;DHT22;13748;52.240;6.002;2022-10-16T05:51:30;12.90;99.90
25951;DHT22;13748;52.240;6.002;2022-10-16T05:53:57;13.00;99.90
25951;DHT22;13748;52.240;6.002;2022-10-16T05:56:24;13.00;99.90
25951;DHT22;13748;52.240;6.002;2022-10-16T05:58:51;13.00;99.90
25951;DHT22;13748;52.240;6.002;2022-10-16T06:01:19;13.00;99.90
25951;DHT22;13748;52.240;6.002;2022-10-16T06:03:47;13.00;99.90
25951;DHT22;13748;52.240;6.002;2022-10-16T06:06:16;13.00;99.90
25951;DHT22;13748;52.240;6.002;2022-10-16T06:08:44;13.00;99.90
25951;DHT22;13748;52.240;6.002;2022-10-16T06:11:19;13.20;99.90
25951;DHT22;13748;52.240;6.002;2022-10-16T06:13:51;12.90;99.90
25951;DHT22;13748;52.240;6.002;2022-10-16T06:16:18;12.80;99.90
25951;DHT22;13748;52.240;6.002;2022-10-16T06:18:46;12.80;99.90
25951;DHT22;13748;52.240;6.002;2022-10-16T06:21:23;12.90;99.90
25951;DHT22;13748;52.240;6.002;2022-10-16T06:23:51;12.90;99.90
25951;DHT22;13748;52.240;6.002;2022-10-16T06:26:21;12.90;99.90
25951;DHT22;13748;52.240;6.002;2022-10-16T06:28:48;12.70;99.90
25951;DHT22;13748;52.240;6.002;2022-10-16T06:31:16;12.90;99.90
25951;DHT22;13748;52.240;6.002;2022-10-16T06:33:43;12.90;99.90
25951;DHT22;13748;52.240;6.002;2022-10-16T06:36:15;13.00;99.90
25951;DHT22;13748;52.240;6.002;2022-10-16T06:38:44;13.00;99.90
25951;DHT22;13748;52.240;6.002;2022-10-16T06:41:16;13.10;99.90
25951;DHT22;13748;52.240;6.002;2022-10-16T06:43:43;13.20;99.90
25951;DHT22;13748;52.240;6.002;2022-10-16T06:46:16;13.20;99.90
25951;DHT22;13748;52.240;6.002;2022-10-16T06:48:43;13.20;99.90
25951;DHT22;13748;52.240;6.002;2022-10-16T06:51:21;13.20;99.90
25951;DHT22;13748;52.240;6.002;2022-10-16T06:53:53;13.30;99.90
25951;DHT22;13748;52.240;6.002;2022-10-16T06:56:31;13.30;99.90
25951;DHT22;13748;52.240;6.002;2022-10-16T06:58:59;13.30;99.90
25951;DHT22;13748;52.240;6.002;2022-10-16T07:01:27;13.40;99.90
25951;DHT22;13748;52.240;6.002;2022-10-16T07:03:54;13.40;99.90
25951;DHT22;13748;52.240;6.002;2022-10-16T07:06:22;13.40;99.90
25951;DHT22;13748;52.240;6.002;2022-10-16T07:08:49;13.40;99.90
25951;DHT22;13748;52.240;6.002;2022-10-16T07:11:18;13.50;99.90
25951;DHT22;13748;52.240;6.002;2022-10-16T07:13:46;13.50;99.90
25951;DHT22;13748;52.240;6.002;2022-10-16T07:16:23;13.90;99.90
25951;DHT22;13748;52.240;6.002;2022-10-16T07:18:50;13.60;99.90
25951;DHT22;13748;52.240;6.002;2022-10-16T07:21:22;13.60;99.90
25951;DHT22;13748;52.240;6.002;2022-10-16T07:23:53;13.80;99.90
25951;DHT22;13748;52.240;6.002;2022-10-16T07:26:22;13.80;99.90
25951;DHT22;13748;52.240;6.002;2022-10-16T07:28:49;14.00;99.90
25951;DHT22;13748;52.240;6.002;2022-10-16T07:31:17;13.80;99.90
25951;DHT22;13748;52.240;6.002;2022-10-16T07:33:46;13.90;99.90
25951;DHT22;13748;52.240;6.002;2022-10-16T07:36:16;13.90;99.90
25951;DHT22;13748;52.240;6.002;2022-10-16T07:38:45;13.90;99.90
25951;DHT22;13748;52.240;6.002;2022-10-16T07:41:15;13.70;99.90
25951;DHT22;13748;52.240;6.002;2022-10-16T07:43:47;14.00;99.90
25951;DHT22;13748;52.240;6.002;2022-10-16T07:46:16;14.10;99.90
25951;DHT22;13748;52.240;6.002;2022-10-16T07:48:46;14.10;99.90
25951;DHT22;13748;52.240;6.002;2022-10-16T07:51:16;14.20;99.90
25951;DHT22;13748;52.240;6.002;2022-10-16T07:53:43;14.20;99.90
25951;DHT22;13748;52.240;6.002;2022-10-16T07:56:11;14.20;99.90
25951;DHT22;13748;52.240;6.002;2022-10-16T07:58:38;14.30;99.90
25951;DHT22;13748;52.240;6.002;2022-10-16T08:01:08;14.30;99.90
25951;DHT22;13748;52.240;6.002;2022-10-16T08:03:37;13.50;99.90
25951;DHT22;13748;52.240;6.002;2022-10-16T08:06:06;14.40;99.90
25951;DHT22;13748;52.240;6.002;2022-10-16T08:08:33;14.40;99.90
25951;DHT22;13748;52.240;6.002;2022-10-16T08:11:00;14.40;99.90
25951;DHT22;13748;52.240;6.002;2022-10-16T08:13:27;14.50;99.90
25951;DHT22;13748;52.240;6.002;2022-10-16T08:15:54;14.60;99.90
25951;DHT22;13748;52.240;6.002;2022-10-16T08:18:22;14.70;99.90
25951;DHT22;13748;52.240;6.002;2022-10-16T08:20:57;14.70;99.90
25951;DHT22;13748;52.240;6.002;2022-10-16T08:23:25;14.80;99.90
25951;DHT22;13748;52.240;6.002;2022-10-16T08:25:54;14.80;99.90
25951;DHT22;13748;52.240;6.002;2022-10-16T08:28:22;14.90;99.90
25951;DHT22;13748;52.240;6.002;2022-10-16T08:30:49;14.90;99.90
25951;DHT22;13748;52.240;6.002;2022-10-16T08:33:17;14.80;99.90
25951;DHT22;13748;52.240;6.002;2022-10-16T08:35:53;14.80;99.90
25951;DHT22;13748;52.240;6.002;2022-10-16T08:38:21;14.80;99.90
25951;DHT22;13748;52.240;6.002;2022-10-16T08:40:49;14.80;99.90
25951;DHT22;13748;52.240;6.002;2022-10-16T08:43:41;15.00;99.90
25951;DHT22;13748;52.240;6.002;2022-10-16T08:46:35;15.40;99.90
25951;DHT22;13748;52.240;6.002;2022-10-16T08:49:08;14.70;99.90
25951;DHT22;13748;52.240;6.002;2022-10-16T08:51:37;14.70;99.90
25951;DHT22;13748;52.240;6.002;2022-10-16T08:54:21;14.90;99.90
25951;DHT22;13748;52.240;6.002;2022-10-16T08:56:49;14.90;99.90
25951;DHT22;13748;52.240;6.002;2022-10-16T08:59:17;14.90;99.90
25951;DHT22;13748;52.240;6.002;2022-10-16T09:01:46;15.00;99.90
25951;DHT22;13748;52.240;6.002;2022-10-16T09:04:53;15.00;99.90
25951;DHT22;13748;52.240;6.002;2022-10-16T09:12:58;15.10;99.90
25951;DHT22;13748;52.240;6.002;2022-10-16T09:15:32;15.10;99.90
25951;DHT22;13748;52.240;6.002;2022-10-16T09:18:12;15.90;99.90
25951;DHT22;13748;52.240;6.002;2022-10-16T09:21:01;15.20;99.90
25951;DHT22;13748;52.240;6.002;2022-10-16T09:23:36;15.30;99.90
25951;DHT22;13748;52.240;6.002;2022-10-16T09:26:05;15.60;99.90
25951;DHT22;13748;52.240;6.002;2022-10-16T09:28:36;15.40;99.90
25951;DHT22;13748;52.240;6.002;2022-10-16T09:31:03;15.40;99.90
25951;DHT22;13748;52.240;6.002;2022-10-16T09:33:34;15.40;99.90
25951;DHT22;13748;52.240;6.002;2022-10-16T09:36:03;15.50;99.90
25951;DHT22;13748;52.240;6.002;2022-10-16T09:38:34;15.60;99.90
25951;DHT22;13748;52.240;6.002;2022-10-16T09:41:14;15.60;99.90
25951;DHT22;13748;52.240;6.002;2022-10-16T09:43:47;15.70;99.90
25951;DHT22;13748;52.240;6.002;2022-10-16T09:46:32;15.80;99.90
25951;DHT22;13748;52.240;6.002;2022-10-16T09:49:16;15.80;99.90
25951;DHT22;13748;52.240;6.002;2022-10-16T09:51:44;15.70;99.90
25951;DHT22;13748;52.240;6.002;2022-10-16T09:54:19;15.90;99.90
25951;DHT22;13748;52.240;6.002;2022-10-16T09:56:48;16.00;99.90
25951;DHT22;13748;52.240;6.002;2022-10-16T09:59:21;16.10;99.90
25951;DHT22;13748;52.240;6.002;2022-10-16T10:01:54;16.10;99.90
25951;DHT22;13748;52.240;6.002;2022-10-16T10:04:23;16.20;99.90
25951;DHT22;13748;52.240;6.002;2022-10-16T10:06:55;16.20;99.90
25951;DHT22;13748;52.240;6.002;2022-10-16T10:09:35;16.20;99.90
25951;DHT22;13748;52.240;6.002;2022-10-16T10:12:05;16.30;99.90
25951;DHT22;13748;52.240;6.002;2022-10-16T10:14:35;16.40;99.90
25951;DHT22;13748;52.240;6.002;2022-10-16T10:28:04;16.80;99.90
25951;DHT22;13748;52.240;6.002;2022-10-16T10:39:22;17.40;99.90
25951;DHT22;13748;52.240;6.002;2022-10-16T10:45:11;17.60;99.90
25951;DHT22;13748;52.240;6.002;2022-10-16T10:50:54;17.80;99.90
25951;DHT22;13748;52.240;6.002;2022-10-16T10:53:42;17.90;99.90
25951;DHT22;13748;52.240;6.002;2022-10-16T10:56:23;17.90;99.90
25951;DHT22;13748;52.240;6.002;2022-10-16T11:04:08;17.70;99.90
25951;DHT22;13748;52.240;6.002;2022-10-16T11:07:13;17.60;99.90
25951;DHT22;13748;52.240;6.002;2022-10-16T11:09:46;17.60;99.90
25951;DHT22;13748;52.240;6.002;2022-10-16T11:12:27;17.60;99.90
25951;DHT22;13748;52.240;6.002;2022-10-16T11:15:03;17.50;99.90
25951;DHT22;13748;52.240;6.002;2022-10-16T11:17:39;17.50;99.90
25951;DHT22;13748;52.240;6.002;2022-10-16T11:20:14;17.50;99.90
25951;DHT22;13748;52.240;6.002;2022-10-16T11:22:58;16.90;99.90
25951;DHT22;13748;52.240;6.002;2022-10-16T11:25:28;17.50;99.90
25951;DHT22;13748;52.240;6.002;2022-10-16T11:31:10;17.20;99.90
25951;DHT22;13748;52.240;6.002;2022-10-16T11:33:45;17.30;99.90
25951;DHT22;13748;52.240;6.002;2022-10-16T11:47:40;17.80;99.90
25951;DHT22;13748;52.240;6.002;2022-10-16T11:50:42;17.70;99.90
25951;DHT22;13748;52.240;6.002;2022-10-16T11:53:18;17.90;99.90
25951;DHT22;13748;52.240;6.002;2022-10-16T11:55:48;17.90;99.90
25951;DHT22;13748;52.240;6.002;2022-10-16T12:00:58;17.50;99.90
25951;DHT22;13748;52.240;6.002;2022-10-16T12:06:38;18.40;99.90
25951;DHT22;13748;52.240;6.002;2022-10-16T12:09:15;18.50;99.90
25951;DHT22;13748;52.240;6.002;2022-10-16T12:11:45;18.60;99.90
25951;DHT22;13748;52.240;6.002;2022-10-16T12:17:00;18.70;99.90
25951;DHT22;13748;52.240;6.002;2022-10-16T12:19:29;18.80;99.90
25951;DHT22;13748;52.240;6.002;2022-10-16T12:21:58;18.80;99.90
25951;DHT22;13748;52.240;6.002;2022-10-16T12:26:56;19.00;99.90
25951;DHT22;13748;52.240;6.002;2022-10-16T12:29:34;19.00;99.90
25951;DHT22;13748;52.240;6.002;2022-10-16T12:32:49;18.90;99.90
25951;DHT22;13748;52.240;6.002;2022-10-16T12:35:31;19.00;99.90
25951;DHT22;13748;52.240;6.002;2022-10-16T12:38:16;19.10;99.90
25951;DHT22;13748;52.240;6.002;2022-10-16T12:40:46;19.10;99.90
25951;DHT22;13748;52.240;6.002;2022-10-16T12:46:01;19.20;99.90
25951;DHT22;13748;52.240;6.002;2022-10-16T12:48:29;19.30;99.90
25951;DHT22;13748;52.240;6.002;2022-10-16T12:51:35;19.20;99.90
25951;DHT22;13748;52.240;6.002;2022-10-16T13:00:02;19.10;99.90
25951;DHT22;13748;52.240;6.002;2022-10-16T13:02:54;19.00;99.90
25951;DHT22;13748;52.240;6.002;2022-10-16T13:08:33;18.80;99.90
25951;DHT22;13748;52.240;6.002;2022-10-16T13:11:26;18.70;99.90
25951;DHT22;13748;52.240;6.002;2022-10-16T13:14:28;18.60;99.90
25951;DHT22;13748;52.240;6.002;2022-10-16T13:25:53;18.80;99.90
25951;DHT22;13748;52.240;6.002;2022-10-16T13:28:28;18.90;99.90
25951;DHT22;13748;52.240;6.002;2022-10-16T13:30:59;18.90;99.90
25951;DHT22;13748;52.240;6.002;2022-10-16T13:33:33;19.10;99.90
25951;DHT22;13748;52.240;6.002;2022-10-16T13:36:04;19.10;99.90
25951;DHT22;13748;52.240;6.002;2022-10-16T13:38:36;19.20;99.90
25951;DHT22;13748;52.240;6.002;2022-10-16T13:41:14;19.30;99.90
25951;DHT22;13748;52.240;6.002;2022-10-16T13:43:52;19.30;99.90
25951;DHT22;13748;52.240;6.002;2022-10-16T13:46:23;19.20;99.90
25951;DHT22;13748;52.240;6.002;2022-10-16T13:49:03;19.20;99.90
25951;DHT22;13748;52.240;6.002;2022-10-16T13:51:32;19.20;99.90
25951;DHT22;13748;52.240;6.002;2022-10-16T13:53:59;19.20;99.90
25951;DHT22;13748;52.240;6.002;2022-10-16T13:56:28;19.10;99.90
25951;DHT22;13748;52.240;6.002;2022-10-16T13:59:20;19.20;99.90
25951;DHT22;13748;52.240;6.002;2022-10-16T14:01:49;19.20;99.90
25951;DHT22;13748;52.240;6.002;2022-10-16T14:04:17;19.20;99.90
25951;DHT22;13748;52.240;6.002;2022-10-16T14:06:46;19.10;99.90
25951;DHT22;13748;52.240;6.002;2022-10-16T14:09:23;19.10;99.90
25951;DHT22;13748;52.240;6.002;2022-10-16T14:12:02;19.10;99.90
25951;DHT22;13748;52.240;6.002;2022-10-16T14:14:41;19.20;99.90
25951;DHT22;13748;52.240;6.002;2022-10-16T14:17:26;19.20;99.90
25951;DHT22;13748;52.240;6.002;2022-10-16T14:19:56;19.20;99.90
25951;DHT22;13748;52.240;6.002;2022-10-16T14:22:34;19.20;99.90
25951;DHT22;13748;52.240;6.002;2022-10-16T14:25:16;19.10;99.90
25951;DHT22;13748;52.240;6.002;2022-10-16T14:30:52;19.00;99.90
25951;DHT22;13748;52.240;6.002;2022-10-16T14:38:29;18.90;99.90
25951;DHT22;13748;52.240;6.002;2022-10-16T14:40:58;18.90;99.90
25951;DHT22;13748;52.240;6.002;2022-10-16T14:43:32;19.00;99.90
25951;DHT22;13748;52.240;6.002;2022-10-16T14:46:01;18.90;99.90
25951;DHT22;13748;52.240;6.002;2022-10-16T14:48:30;18.80;99.90
25951;DHT22;13748;52.240;6.002;2022-10-16T14:50:57;18.80;99.90
25951;DHT22;13748;52.240;6.002;2022-10-16T14:53:24;18.80;99.90
25951;DHT22;13748;52.240;6.002;2022-10-16T14:55:51;18.80;99.90
25951;DHT22;13748;52.240;6.002;2022-10-16T14:58:21;18.80;99.90
25951;DHT22;13748;52.240;6.002;2022-10-16T15:00:49;18.80;99.90
25951;DHT22;13748;52.240;6.002;2022-10-16T15:03:16;18.80;99.90
25951;DHT22;13748;52.240;6.002;2022-10-16T15:05:43;18.80;99.90
25951;DHT22;13748;52.240;6.002;2022-10-16T15:08:10;18.80;99.90
25951;DHT22;13748;52.240;6.002;2022-10-16T15:10:42;18.70;99.90
25951;DHT22;13748;52.240;6.002;2022-10-16T15:13:14;18.70;99.90
25951;DHT22;13748;52.240;6.002;2022-10-16T15:15:49;18.70;99.90
25951;DHT22;13748;52.240;6.002;2022-10-16T15:18:24;18.60;99.90
25951;DHT22;13748;52.240;6.002;2022-10-16T15:20:51;18.50;99.90
25951;DHT22;13748;52.240;6.002;2022-10-16T15:23:20;18.40;99.90
25951;DHT22;13748;52.240;6.002;2022-10-16T15:25:53;18.50;99.90
25951;DHT22;13748;52.240;6.002;2022-10-16T15:28:23;18.30;99.90
25951;DHT22;13748;52.240;6.002;2022-10-16T15:30:54;18.30;99.90
25951;DHT22;13748;52.240;6.002;2022-10-16T15:33:24;18.30;99.90
25951;DHT22;13748;52.240;6.002;2022-10-16T15:36:01;18.30;99.90
25951;DHT22;13748;52.240;6.002;2022-10-16T15:38:29;18.30;99.90
25951;DHT22;13748;52.240;6.002;2022-10-16T15:40:58;18.20;99.90
25951;DHT22;13748;52.240;6.002;2022-10-16T15:43:25;18.40;99.90
25951;DHT22;13748;52.240;6.002;2022-10-16T15:46:05;18.20;99.90
25951;DHT22;13748;52.240;6.002;2022-10-16T15:48:33;18.30;99.90
25951;DHT22;13748;52.240;6.002;2022-10-16T15:51:00;18.20;99.90
25951;DHT22;13748;52.240;6.002;2022-10-16T15:53:27;18.10;99.90
25951;DHT22;13748;52.240;6.002;2022-10-16T15:55:54;18.50;99.90
25951;DHT22;13748;52.240;6.002;2022-10-16T15:58:21;17.90;99.90
25951;DHT22;13748;52.240;6.002;2022-10-16T16:00:55;18.00;99.90
25951;DHT22;13748;52.240;6.002;2022-10-16T16:03:22;17.80;99.90
25951;DHT22;13748;52.240;6.002;2022-10-16T16:05:49;17.70;99.90
25951;DHT22;13748;52.240;6.002;2022-10-16T16:08:16;17.60;99.90
25951;DHT22;13748;52.240;6.002;2022-10-16T16:10:43;17.20;99.90
25951;DHT22;13748;52.240;6.002;2022-10-16T16:13:10;17.40;99.90
25951;DHT22;13748;52.240;6.002;2022-10-16T16:15:40;17.40;99.90
25951;DHT22;13748;52.240;6.002;2022-10-16T16:18:07;17.30;99.90
25951;DHT22;13748;52.240;6.002;2022-10-16T16:20:36;17.30;99.90
25951;DHT22;13748;52.240;6.002;2022-10-16T16:23:04;17.20;99.90
25951;DHT22;13748;52.240;6.002;2022-10-16T16:25:31;17.10;99.90
25951;DHT22;13748;52.240;6.002;2022-10-16T16:27:57;17.30;99.90
25951;DHT22;13748;52.240;6.002;2022-10-16T16:30:24;17.30;99.90
25951;DHT22;13748;52.240;6.002;2022-10-16T16:32:54;17.00;99.90
25951;DHT22;13748;52.240;6.002;2022-10-16T16:35:20;16.90;99.90
25951;DHT22;13748;52.240;6.002;2022-10-16T16:37:48;16.70;99.90
25951;DHT22;13748;52.240;6.002;2022-10-16T16:40:14;16.80;99.90
25951;DHT22;13748;52.240;6.002;2022-10-16T16:42:41;16.80;99.90
25951;DHT22;13748;52.240;6.002;2022-10-16T16:45:09;16.70;99.90
25951;DHT22;13748;52.240;6.002;2022-10-16T16:47:39;16.60;99.90
25951;DHT22;13748;52.240;6.002;2022-10-16T16:50:06;16.50;99.90
25951;DHT22;13748;52.240;6.002;2022-10-16T16:52:34;16.40;99.90
25951;DHT22;13748;52.240;6.002;2022-10-16T16:55:01;16.30;99.90
25951;DHT22;13748;52.240;6.002;2022-10-16T16:57:28;16.30;99.90
25951;DHT22;13748;52.240;6.002;2022-10-16T16:59:56;16.20;99.90
25951;DHT22;13748;52.240;6.002;2022-10-16T17:02:23;16.10;99.90
25951;DHT22;13748;52.240;6.002;2022-10-16T17:04:50;16.00;99.90
25951;DHT22;13748;52.240;6.002;2022-10-16T17:07:17;16.00;99.90
25951;DHT22;13748;52.240;6.002;2022-10-16T17:09:49;15.90;99.90
25951;DHT22;13748;52.240;6.002;2022-10-16T17:12:18;15.30;99.90
25951;DHT22;13748;52.240;6.002;2022-10-16T17:14:45;15.80;99.90
25951;DHT22;13748;52.240;6.002;2022-10-16T17:17:12;15.70;99.90
25951;DHT22;13748;52.240;6.002;2022-10-16T17:19:39;15.70;99.90
25951;DHT22;13748;52.240;6.002;2022-10-16T17:22:06;15.70;99.90
25951;DHT22;13748;52.240;6.002;2022-10-16T17:24:34;15.70;99.90
25951;DHT22;13748;52.240;6.002;2022-10-16T17:27:01;15.70;99.90
25951;DHT22;13748;52.240;6.002;2022-10-16T17:29:30;15.60;99.90
25951;DHT22;13748;52.240;6.002;2022-10-16T17:31:57;15.60;99.90
25951;DHT22;13748;52.240;6.002;2022-10-16T17:34:25;15.50;99.90
25951;DHT22;13748;52.240;6.002;2022-10-16T17:36:53;15.30;99.90
25951;DHT22;13748;52.240;6.002;2022-10-16T17:39:20;15.40;99.90
25951;DHT22;13748;52.240;6.002;2022-10-16T17:41:48;15.70;99.90